Time;durP1;ratioP1;P1;durP2;ratioP2;P2;SDS_P1;SDS_P2;PMS_P1;PMS_P2;Temp;Humidity;BMP_temperature;BMP_pressure;BME280_temperature;BME280_humidity;BME280_pressure;Samples;Min_cycle;Max_cycle;Signal;HPM_P1;HPM_P2
2021/01/28 00:01:15;;;;;;;14.35;8.88;;;;;;;8.40;91.65;99423.28;5054421;28;20139;-55
2021/01/28 00:03:42;;;;;;;14.93;9.23;;;;;;;8.40;91.64;99413.03;5049703;28;20688;-54
2021/01/28 00:06:09;;;;;;;17.92;9.20;;;;;;;8.40;91.51;99412.25;5041400;28;20037;-53
2021/01/28 00:08:37;;;;;;;18.90;10.38;;;;;;;8.42;91.70;99415.44;5053184;28;20052;-48
2021/01/28 00:11:04;;;;;;;21.63;11.63;;;;;;;8.42;91.63;99409.91;5053623;28;20132;-50
2021/01/28 00:13:30;;;;;;;19.67;10.82;;;;;;;8.42;91.45;99407.16;5055754;28;20052;-51
2021/01/28 00:15:56;;;;;;;16.08;9.32;;;;;;;8.44;91.59;99391.06;5055368;28;20086;-52
2021/01/28 00:18:23;;;;;;;19.02;10.88;;;;;;;8.45;91.58;99382.41;5055550;28;20048;-48
2021/01/28 00:20:50;;;;;;;21.25;10.70;;;;;;;8.45;92.10;99370.56;5054876;28;20041;-49
2021/01/28 00:23:18;;;;;;;20.58;10.10;;;;;;;8.45;91.59;99365.06;5054753;28;20098;-54
2021/01/28 00:25:44;;;;;;;19.17;9.30;;;;;;;8.46;91.61;99361.16;5052697;28;20467;-53
2021/01/28 00:28:14;;;;;;;15.65;8.98;;;;;;;8.45;91.47;99354.03;5054450;28;20095;-49
2021/01/28 00:30:44;;;;;;;18.75;10.18;;;;;;;8.45;91.69;99341.03;5053857;28;20065;-52
2021/01/28 00:33:14;;;;;;;20.45;10.55;;;;;;;8.46;91.77;99339.91;5053944;28;20098;-50
2021/01/28 00:35:43;;;;;;;20.23;10.32;;;;;;;8.50;91.63;99331.66;5054686;28;20040;-52
2021/01/28 00:38:39;;;;;;;19.63;11.15;;;;;;;8.48;91.74;99337.56;5055212;28;20041;-50
2021/01/28 00:41:14;;;;;;;23.13;11.65;;;;;;;8.52;91.60;99326.59;5053936;28;20044;-50
2021/01/28 00:43:40;;;;;;;21.38;11.07;;;;;;;8.54;91.56;99329.78;5053382;28;20103;-47
2021/01/28 00:46:07;;;;;;;17.65;9.00;;;;;;;8.53;91.55;99315.19;5036248;28;20055;-52
2021/01/28 00:48:35;;;;;;;15.30;9.38;;;;;;;8.55;91.53;99312.09;5053154;28;20041;-53
2021/01/28 00:51:03;;;;;;;17.17;9.38;;;;;;;8.56;91.73;99299.88;5054332;28;20116;-52
2021/01/28 00:53:31;;;;;;;17.55;10.60;;;;;;;8.57;91.75;99295.97;5052689;28;20045;-51
2021/01/28 00:55:57;;;;;;;16.73;9.68;;;;;;;8.58;91.65;99290.06;5052918;28;20044;-53
2021/01/28 00:58:25;;;;;;;18.67;10.88;;;;;;;8.59;91.52;99271.56;5053067;28;20045;-50
2021/01/28 01:00:55;;;;;;;15.70;9.15;;;;;;;8.61;91.73;99269.22;5052271;28;20039;-47
2021/01/28 01:03:24;;;;;;;15.52;8.68;;;;;;;8.64;91.77;99265.72;5051511;28;20056;-52
2021/01/28 01:05:52;;;;;;;13.05;7.45;;;;;;;8.66;91.82;99260.63;5052396;28;20053;-51
2021/01/28 01:08:26;;;;;;;13.52;8.13;;;;;;;8.69;91.77;99248.88;5051492;28;20760;-50
2021/01/28 01:11:02;;;;;;;14.57;8.02;;;;;;;8.70;91.81;99253.22;5050841;28;20048;-48
2021/01/28 01:13:31;;;;;;;14.32;10.38;;;;;;;8.71;91.92;99252.03;5052225;28;20045;-52
2021/01/28 01:15:57;;;;;;;16.65;9.90;;;;;;;8.74;91.93;99251.31;5051867;28;20040;-50
2021/01/28 01:18:27;;;;;;;14.05;9.90;;;;;;;8.75;91.78;99246.59;5051565;28;20430;-51
2021/01/28 01:20:55;;;;;;;15.13;9.65;;;;;;;8.75;91.75;99252.91;5048899;28;20402;-52
2021/01/28 01:23:22;;;;;;;13.60;8.70;;;;;;;8.76;91.79;99254.53;5048722;28;20060;-51
2021/01/28 01:25:55;;;;;;;11.93;7.90;;;;;;;8.77;91.82;99245.06;5048655;28;20490;-51
2021/01/28 01:28:21;;;;;;;10.10;6.88;;;;;;;8.79;92.15;99231.69;5049331;28;20052;-51
2021/01/28 01:30:48;;;;;;;7.38;6.03;;;;;;;8.83;92.46;99237.28;5048512;28;20110;-49
2021/01/28 01:33:14;;;;;;;8.35;5.28;;;;;;;8.86;92.23;99242.84;5050854;28;20450;-48
2021/01/28 01:35:41;;;;;;;4.63;3.22;;;;;;;8.93;92.25;99237.44;5051241;28;20041;-48
2021/01/28 01:38:08;;;;;;;2.28;2.08;;;;;;;9.02;92.69;99240.75;5050917;28;20049;-49
2021/01/28 01:40:41;;;;;;;2.85;1.90;;;;;;;9.11;92.60;99232.16;5051455;28;20391;-51
2021/01/28 01:43:10;;;;;;;2.63;1.92;;;;;;;9.18;92.63;99240.59;5053421;28;20041;-48
2021/01/28 01:45:56;;;;;;;2.15;1.83;;;;;;;9.25;92.73;99232.38;5052754;28;20052;-50
2021/01/28 01:48:31;;;;;;;1.67;1.10;;;;;;;9.32;92.90;99224.19;5034300;28;20436;-48
2021/01/28 01:51:21;;;;;;;3.95;1.50;;;;;;;9.37;92.92;99217.56;5051945;28;20037;-51
2021/01/28 01:53:55;;;;;;;1.33;1.00;;;;;;;9.42;92.75;99211.72;5053840;28;20041;-48
2021/01/28 01:56:26;;;;;;;3.08;1.38;;;;;;;9.45;92.71;99210.97;5051317;28;20037;-50
2021/01/28 01:59:02;;;;;;;1.33;1.13;;;;;;;9.49;92.78;99203.50;5051209;28;20032;-48
2021/01/28 02:01:34;;;;;;;2.15;1.30;;;;;;;9.51;92.60;99204.72;5050800;28;20498;-48
2021/01/28 02:04:01;;;;;;;5.32;3.17;;;;;;;9.54;92.69;99211.47;5051429;28;20049;-50
2021/01/28 02:06:37;;;;;;;1.67;1.58;;;;;;;9.55;92.75;99196.50;5051987;28;22585;-48
2021/01/28 02:09:06;;;;;;;1.67;1.40;;;;;;;9.56;92.74;99195.31;5052272;28;20363;-52
2021/01/28 02:11:33;;;;;;;4.78;1.80;;;;;;;9.58;92.68;99196.50;5051115;28;20466;-50
2021/01/28 02:14:06;;;;;;;2.67;1.52;;;;;;;9.60;92.88;99193.41;5032585;28;20049;-48
2021/01/28 02:16:37;;;;;;;2.58;1.20;;;;;;;9.62;92.98;99194.59;5052036;28;20041;-48
2021/01/28 02:19:20;;;;;;;1.92;1.17;;;;;;;9.64;93.02;99189.50;5052770;28;20402;-49
2021/01/28 02:21:59;;;;;;;1.65;1.02;;;;;;;9.66;92.66;99180.84;5033716;28;20120;-51
2021/01/28 02:24:47;;;;;;;4.13;1.55;;;;;;;9.67;93.15;99176.88;5051026;28;20049;-48
2021/01/28 02:27:14;;;;;;;2.47;1.10;;;;;;;9.73;92.99;99180.91;5051440;28;20079;-50
2021/01/28 02:29:41;;;;;;;4.53;1.67;;;;;;;9.74;92.99;99185.28;5050261;28;20148;-52
2021/01/28 02:32:08;;;;;;;3.60;1.30;;;;;;;9.76;93.21;99180.16;5031083;28;20503;-52
2021/01/28 02:34:36;;;;;;;4.93;1.58;;;;;;;9.79;93.17;99173.88;5013988;28;20092;-51
2021/01/28 02:37:17;;;;;;;5.20;1.65;;;;;;;9.80;93.18;99172.69;5032008;28;20128;-48
2021/01/28 02:39:44;;;;;;;4.30;1.30;;;;;;;9.82;93.17;99164.84;5027553;28;20045;-50
2021/01/28 02:42:29;;;;;;;5.20;1.38;;;;;;;9.85;93.15;99174.34;5032240;28;20053;-49
2021/01/28 02:44:56;;;;;;;6.03;1.80;;;;;;;9.87;93.15;99167.25;5031301;28;20053;-52
2021/01/28 02:47:23;;;;;;;3.58;1.50;;;;;;;9.90;93.22;99165.72;5031564;28;20073;-51
2021/01/28 02:49:50;;;;;;;12.57;2.70;;;;;;;9.93;93.02;99157.44;5030999;28;20098;-52
2021/01/28 02:52:16;;;;;;;3.53;1.48;;;;;;;9.95;93.20;99155.13;5031630;28;20049;-48
2021/01/28 02:54:45;;;;;;;6.22;1.92;;;;;;;9.97;93.17;99152.75;5031155;28;20513;-51
2021/01/28 02:57:13;;;;;;;3.88;1.27;;;;;;;9.98;93.09;99154.31;5012387;28;20104;-53
2021/01/28 02:59:39;;;;;;;3.58;1.90;;;;;;;10.01;93.13;99153.56;5031114;28;20042;-48
2021/01/28 03:02:11;;;;;;;2.45;1.60;;;;;;;10.03;93.10;99150.44;5031141;28;20053;-47
2021/01/28 03:04:39;;;;;;;4.43;2.05;;;;;;;10.04;93.06;99152.81;5031067;28;20045;-50
2021/01/28 03:07:06;;;;;;;3.22;1.90;;;;;;;10.04;93.10;99158.34;5031678;28;20108;-49
2021/01/28 03:09:33;;;;;;;8.63;1.98;;;;;;;10.06;93.08;99161.53;5011769;28;20127;-47
2021/01/28 03:12:00;;;;;;;2.80;2.00;;;;;;;10.08;93.11;99155.63;5036173;28;20041;-51
2021/01/28 03:14:27;;;;;;;3.38;1.83;;;;;;;10.09;93.14;99155.22;5035719;28;20472;-50
2021/01/28 03:16:53;;;;;;;3.60;1.90;;;;;;;10.10;93.08;99151.31;5036520;28;20123;-48
2021/01/28 03:19:21;;;;;;;1.83;1.48;;;;;;;10.09;92.94;99146.94;5035912;28;20052;-48
2021/01/28 03:21:47;;;;;;;2.20;1.48;;;;;;;10.13;93.15;99149.78;5017455;28;20133;-47
2021/01/28 03:24:14;;;;;;;4.28;1.55;;;;;;;10.12;92.95;99148.97;5035728;28;20459;-49
2021/01/28 03:26:49;;;;;;;3.08;1.60;;;;;;;10.13;93.02;99153.34;5034359;28;20081;-48
2021/01/28 03:29:16;;;;;;;3.35;1.45;;;;;;;10.14;92.82;99146.63;5035009;28;20132;-48
2021/01/28 03:31:42;;;;;;;2.30;1.55;;;;;;;10.15;93.15;99153.75;5052518;28;20073;-50
2021/01/28 03:34:11;;;;;;;3.70;1.77;;;;;;;10.14;93.11;99146.63;5056337;28;20037;-49
2021/01/28 03:36:37;;;;;;;6.25;1.92;;;;;;;10.15;93.09;99148.22;5053420;28;20095;-48
2021/01/28 03:39:05;;;;;;;2.88;1.10;;;;;;;10.15;93.03;99145.44;5054543;28;20183;-48
2021/01/28 03:41:32;;;;;;;2.63;1.15;;;;;;;10.17;93.18;99145.84;5054585;28;20052;-49
2021/01/28 03:43:58;;;;;;;3.50;1.27;;;;;;;10.18;93.17;99144.69;5055402;28;20439;-48
2021/01/28 03:46:25;;;;;;;2.88;1.45;;;;;;;10.19;93.12;99139.97;5055396;28;20037;-49
2021/01/28 03:48:53;;;;;;;2.38;1.10;;;;;;;10.20;93.18;99149.84;5053983;28;20065;-48
2021/01/28 03:51:19;;;;;;;2.22;1.08;;;;;;;10.22;93.36;99153.81;5054342;28;20045;-51
2021/01/28 03:53:45;;;;;;;5.15;1.40;;;;;;;10.24;93.14;99139.59;5054439;28;20064;-48
2021/01/28 03:56:12;;;;;;;1.05;0.70;;;;;;;10.25;93.12;99146.72;5054528;28;20131;-48
2021/01/28 03:58:38;;;;;;;4.65;0.98;;;;;;;10.27;93.04;99155.44;5053322;28;20084;-48
2021/01/28 04:01:05;;;;;;;4.00;1.08;;;;;;;10.27;92.86;99133.31;5054128;28;20441;-49
2021/01/28 04:03:31;;;;;;;1.33;1.00;;;;;;;10.28;93.16;99155.06;5055112;28;20044;-48
2021/01/28 04:05:58;;;;;;;4.05;0.80;;;;;;;10.28;92.97;99148.72;5054826;28;20068;-47
2021/01/28 04:08:26;;;;;;;2.78;1.02;;;;;;;10.28;93.05;99152.28;5055524;28;20494;-48
2021/01/28 04:10:52;;;;;;;2.78;1.83;;;;;;;10.28;92.89;99151.50;5053938;28;20041;-47
2021/01/28 04:13:18;;;;;;;1.98;0.73;;;;;;;10.29;92.87;99164.16;5054174;28;20049;-48
2021/01/28 04:15:44;;;;;;;1.88;0.77;;;;;;;10.28;92.82;99151.50;5053889;28;20060;-47
2021/01/28 04:18:11;;;;;;;4.55;1.00;;;;;;;10.29;92.73;99145.59;5054492;28;20483;-48
2021/01/28 04:20:38;;;;;;;2.42;0.98;;;;;;;10.29;92.64;99167.72;5053408;28;20037;-48
2021/01/28 04:23:05;;;;;;;2.50;0.93;;;;;;;10.27;92.46;99167.28;5053854;28;20048;-50
2021/01/28 04:25:31;;;;;;;7.00;1.10;;;;;;;10.27;92.56;99163.75;5053488;28;20426;-54
2021/01/28 04:27:58;;;;;;;3.97;1.60;;;;;;;10.26;92.26;99182.31;5053686;28;20106;-50
2021/01/28 04:30:32;;;;;;;5.63;2.40;;;;;;;10.21;91.94;99190.94;5052858;28;20083;-51
2021/01/28 04:33:02;;;;;;;5.22;1.25;;;;;;;10.18;91.70;99177.88;5053924;28;20137;-52
2021/01/28 04:35:29;;;;;;;6.90;1.45;;;;;;;10.15;91.46;99180.59;5054749;28;20045;-51
2021/01/28 04:37:56;;;;;;;3.53;1.15;;;;;;;10.09;91.12;99180.13;5053959;28;20453;-51
2021/01/28 04:40:51;;;;;;;6.75;1.70;;;;;;;10.04;90.91;99174.13;5054604;28;20044;-49
2021/01/28 04:43:29;;;;;;;5.85;1.65;;;;;;;10.01;90.68;99188.72;5051544;28;20437;-52
2021/01/28 04:45:58;;;;;;;5.47;1.35;;;;;;;9.94;90.83;99188.66;5053080;28;20098;-48
2021/01/28 04:48:28;;;;;;;9.02;1.63;;;;;;;9.89;90.68;99189.78;5054093;28;20048;-52
2021/01/28 04:50:59;;;;;;;5.18;1.30;;;;;;;9.81;90.33;99199.16;5053209;28;20037;-51
2021/01/28 04:53:40;;;;;;;7.88;1.48;;;;;;;9.75;89.42;99200.66;5053364;28;20045;-48
2021/01/28 04:56:13;;;;;;;6.93;1.30;;;;;;;9.73;89.80;99194.72;5053202;28;20047;-51
2021/01/28 04:58:39;;;;;;;15.38;1.88;;;;;;;9.68;89.77;99206.94;5068239;28;20494;-51
2021/01/28 05:01:05;;;;;;;10.50;1.83;;;;;;;9.64;89.76;99206.06;5052833;28;20133;-48
2021/01/28 05:03:37;;;;;;;13.57;1.88;;;;;;;9.61;89.17;99217.88;5051660;28;20052;-50
2021/01/28 05:06:04;;;;;;;9.07;2.15;;;;;;;9.60;89.32;99221.03;5043931;28;20072;-49
2021/01/28 05:08:31;;;;;;;8.57;1.90;;;;;;;9.58;88.93;99217.84;5052743;28;20094;-51
2021/01/28 05:10:59;;;;;;;7.80;1.63;;;;;;;9.58;89.12;99213.09;5052021;28;20059;-52
2021/01/28 05:13:26;;;;;;;12.63;2.08;;;;;;;9.58;88.93;99212.31;5052878;28;20037;-50
2021/01/28 05:15:53;;;;;;;5.90;1.50;;;;;;;9.57;89.05;99207.97;5052598;28;20037;-49
2021/01/28 05:18:28;;;;;;;10.77;1.92;;;;;;;9.53;88.85;99210.66;5053105;28;20049;-48
2021/01/28 05:21:21;;;;;;;12.50;1.58;;;;;;;9.51;88.74;99207.50;5052002;28;20033;-50
2021/01/28 05:23:48;;;;;;;10.02;2.42;;;;;;;9.54;88.74;99211.47;5051383;28;20463;-52
2021/01/28 05:26:32;;;;;;;15.20;2.30;;;;;;;9.52;88.37;99202.75;5051662;28;20049;-51
2021/01/28 05:29:26;;;;;;;10.02;2.10;;;;;;;9.53;88.31;99198.84;5054425;28;20475;-47
2021/01/28 05:31:54;;;;;;;11.18;2.92;;;;;;;9.53;88.39;99201.59;5048026;28;20053;-49
2021/01/28 05:34:41;;;;;;;11.10;2.80;;;;;;;9.55;88.16;99193.72;5052099;28;20076;-50
2021/01/28 05:37:22;;;;;;;8.80;2.80;;;;;;;9.53;88.10;99190.56;5052415;28;20051;-52
2021/01/28 05:39:48;;;;;;;19.30;2.90;;;;;;;9.54;88.04;99195.69;5043416;28;20110;-48
2021/01/28 05:42:35;;;;;;;9.00;2.30;;;;;;;9.54;87.93;99192.13;5052833;28;20047;-53
2021/01/28 05:45:22;;;;;;;12.32;2.72;;;;;;;9.53;88.10;99187.78;5052955;28;20052;-53
2021/01/28 05:47:51;;;;;;;11.88;2.53;;;;;;;9.53;88.13;99187.78;5053600;28;20388;-51
2021/01/28 05:50:30;;;;;;;19.13;2.75;;;;;;;9.52;87.73;99180.66;5053326;28;20102;-48
2021/01/28 05:53:12;;;;;;;8.00;2.80;;;;;;;9.50;87.76;99177.50;5052783;28;20091;-48
2021/01/28 05:55:38;;;;;;;24.77;5.15;;;;;;;9.49;88.01;99175.88;5052289;28;20398;-48
2021/01/28 05:58:38;;;;;;;14.30;2.90;;;;;;;9.45;87.67;99186.88;5053203;28;20047;-53
2021/01/28 06:01:32;;;;;;;13.52;3.42;;;;;;;9.47;87.90;99186.53;5053255;28;20115;-50
2021/01/28 06:04:42;;;;;;;20.13;6.13;;;;;;;9.44;87.90;99190.03;5052817;28;20064;-50
2021/01/28 06:07:51;;;;;;;23.10;3.85;;;;;;;9.39;87.95;99182.06;5053748;28;20526;-47
2021/01/28 06:11:05;;;;;;;19.13;3.20;;;;;;;9.36;87.72;99186.38;5052405;28;20115;-49
2021/01/28 06:14:08;;;;;;;10.73;3.58;;;;;;;9.37;87.89;99184.44;5051172;28;20036;-53
2021/01/28 06:16:58;;;;;;;15.32;3.17;;;;;;;9.36;87.51;99182.81;5044368;28;20055;-50
2021/01/28 06:19:31;;;;;;;19.15;3.22;;;;;;;9.33;87.68;99195.41;5039653;28;20048;-48
2021/01/28 06:22:01;;;;;;;18.10;2.72;;;;;;;9.31;87.95;99191.44;5052334;28;20056;-49
2021/01/28 06:24:58;;;;;;;21.27;6.47;;;;;;;9.31;87.84;99188.69;5052633;28;20057;-49
2021/01/28 06:27:38;;;;;;;14.60;3.60;;;;;;;9.28;87.87;99195.75;5046769;28;20049;-47
2021/01/28 06:30:23;;;;;;;19.67;2.97;;;;;;;9.27;87.71;99190.56;5051262;28;20080;-52
2021/01/28 06:33:26;;;;;;;22.63;3.67;;;;;;;9.21;87.72;99192.09;5054535;28;20487;-47
2021/01/28 06:36:01;;;;;;;12.48;4.07;;;;;;;9.16;87.74;99195.97;5032311;28;20061;-48
2021/01/28 06:38:33;;;;;;;21.60;3.25;;;;;;;9.14;87.80;99190.81;5045926;28;20068;-50
2021/01/28 06:41:21;;;;;;;20.92;4.10;;;;;;;9.14;88.00;99210.16;5044571;28;20079;-49
2021/01/28 06:43:58;;;;;;;24.25;3.45;;;;;;;9.11;87.96;99199.03;5050597;28;20040;-53
2021/01/28 06:46:31;;;;;;;32.35;6.07;;;;;;;9.10;87.92;99206.56;5051502;28;20041;-48
2021/01/28 06:49:35;;;;;;;16.73;3.05;;;;;;;9.06;87.96;99211.22;5051552;28;20124;-53
2021/01/28 06:52:10;;;;;;;22.45;4.35;;;;;;;9.04;87.99;99216.31;5027408;28;20090;-51
2021/01/28 06:54:51;;;;;;;22.17;5.60;;;;;;;9.01;88.05;99217.06;5039125;28;20045;-50
2021/01/28 06:57:51;;;;;;;25.40;5.18;;;;;;;8.99;88.11;99226.88;5039718;28;20073;-50
2021/01/28 07:00:56;;;;;;;28.08;4.63;;;;;;;8.99;88.34;99221.34;5030770;28;20057;-52
2021/01/28 07:03:38;;;;;;;26.80;4.88;;;;;;;9.00;88.21;99225.72;4995221;28;20054;-49
2021/01/28 07:06:16;;;;;;;;;;;;;;;9.00;88.59;99232.00;5031645;28;20517;-50
2021/01/28 07:08:48;;;;;;;22.30;4.35;;;;;;;9.02;88.48;99240.75;5030749;28;19925;-48
2021/01/28 07:11:38;;;;;;;27.15;4.93;;;;;;;9.05;88.41;99237.22;5029011;28;20046;-49
2021/01/28 07:14:25;;;;;;;16.50;3.38;;;;;;;9.05;88.41;99231.69;5051828;28;20167;-51
2021/01/28 07:17:23;;;;;;;18.80;4.10;;;;;;;9.06;88.29;99240.78;5050765;28;20049;-49
2021/01/28 07:20:25;;;;;;;31.10;8.07;;;;;;;9.04;88.20;99235.63;5049372;28;20183;-51
2021/01/28 07:23:24;;;;;;;23.02;4.18;;;;;;;9.03;88.15;99225.75;5049915;28;20422;-51
2021/01/28 07:26:16;;;;;;;23.23;3.83;;;;;;;9.01;88.12;99239.13;5047994;28;20081;-50
2021/01/28 07:29:34;;;;;;;31.92;5.43;;;;;;;9.00;88.13;99234.00;5048309;28;20094;-52
2021/01/28 07:32:21;;;;;;;22.88;4.10;;;;;;;8.99;88.13;99241.47;5028111;28;20092;-49
2021/01/28 07:35:25;;;;;;;31.20;4.57;;;;;;;8.96;88.17;99239.47;5030661;28;20049;-51
2021/01/28 07:38:30;;;;;;;24.08;4.47;;;;;;;8.97;87.96;99238.31;5039383;28;20060;-50
2021/01/28 07:41:02;;;;;;;20.00;4.32;;;;;;;8.95;87.62;99237.84;5050083;28;20132;-51
2021/01/28 07:43:42;;;;;;;26.90;4.82;;;;;;;8.94;87.90;99247.31;5033268;28;20068;-50
2021/01/28 07:46:28;;;;;;;36.10;5.93;;;;;;;8.94;87.91;99249.28;5047534;28;20055;-49
2021/01/28 07:49:21;;;;;;;20.73;4.25;;;;;;;8.92;87.81;99249.63;5050317;28;20041;-48
2021/01/28 07:52:12;;;;;;;20.48;3.97;;;;;;;8.92;87.79;99241.34;5069594;28;20045;-52
2021/01/28 07:54:49;;;;;;;30.58;6.05;;;;;;;8.91;87.46;99242.53;5061675;28;20032;-51
2021/01/28 07:57:27;;;;;;;27.52;6.78;;;;;;;8.91;87.49;99250.00;5050979;28;20430;-48
2021/01/28 08:00:04;;;;;;;23.45;3.35;;;;;;;8.91;87.51;99250.00;5053334;28;20399;-50
2021/01/28 08:03:04;;;;;;;23.02;6.55;;;;;;;8.91;87.36;99259.09;5052124;28;20052;-50
2021/01/28 08:05:39;;;;;;;40.50;5.07;;;;;;;8.91;87.49;99278.41;5053162;28;20045;-49
2021/01/28 08:08:13;;;;;;;24.20;4.47;;;;;;;8.89;87.66;99253.16;5052840;28;20063;-53
2021/01/28 08:10:41;;;;;;;34.83;5.80;;;;;;;8.89;87.43;99260.63;5053400;28;20049;-47
2021/01/28 08:13:19;;;;;;;26.55;4.18;;;;;;;8.86;87.31;99259.41;5051943;28;20503;-50
2021/01/28 08:16:10;;;;;;;27.90;5.63;;;;;;;8.86;87.38;99258.59;5052330;28;20041;-46
2021/01/28 08:18:43;;;;;;;25.25;4.30;;;;;;;8.86;87.36;99277.94;5042796;28;20037;-49
2021/01/28 08:21:18;;;;;;;23.77;5.15;;;;;;;8.85;87.24;99274.38;5051066;28;20037;-49
2021/01/28 08:23:45;;;;;;;25.30;6.43;;;;;;;8.89;87.43;99268.91;5056188;28;20040;-46
2021/01/28 08:26:32;;;;;;;19.27;5.20;;;;;;;8.91;87.05;99283.13;5050157;28;20494;-47
2021/01/28 08:29:04;;;;;;;20.25;4.32;;;;;;;8.94;87.10;99283.19;5052524;28;20049;-47
2021/01/28 08:31:56;;;;;;;28.13;4.68;;;;;;;8.96;87.13;99267.06;5049267;28;20057;-51
2021/01/28 08:34:43;;;;;;;30.58;5.18;;;;;;;9.00;87.07;99269.88;5052880;28;20139;-53
2021/01/28 08:37:33;;;;;;;27.73;4.47;;;;;;;9.01;86.80;99283.31;5051624;28;20190;-47
2021/01/28 08:40:23;;;;;;;21.20;4.03;;;;;;;9.04;86.89;99290.84;5052612;28;20131;-52
2021/01/28 08:43:19;;;;;;;23.45;4.10;;;;;;;9.06;86.67;99283.00;5051151;28;20056;-52
2021/01/28 08:46:19;;;;;;;28.27;4.43;;;;;;;9.09;86.43;99281.44;5052069;28;20037;-50
2021/01/28 08:48:47;;;;;;;21.30;4.38;;;;;;;9.12;86.58;99278.75;5056231;28;20068;-52
2021/01/28 08:51:26;;;;;;;20.67;4.35;;;;;;;9.11;85.95;99279.91;5059396;28;20048;-51
2021/01/28 08:54:15;;;;;;;19.77;4.07;;;;;;;9.10;85.93;99288.56;5051189;28;20131;-52
2021/01/28 08:56:42;;;;;;;28.98;5.53;;;;;;;9.10;86.15;99303.19;5051416;28;20044;-47
2021/01/28 08:59:13;;;;;;;25.42;5.18;;;;;;;9.13;86.19;99320.97;5052615;28;20053;-48
2021/01/28 09:01:46;;;;;;;22.73;4.13;;;;;;;9.14;85.85;99317.81;5051686;28;20076;-49
2021/01/28 09:04:33;;;;;;;19.08;4.03;;;;;;;9.18;85.79;99315.13;5051500;28;20045;-48
2021/01/28 09:07:00;;;;;;;23.80;5.22;;;;;;;9.22;85.93;99320.69;5052629;28;20057;-47
2021/01/28 09:10:03;;;;;;;18.60;3.72;;;;;;;9.23;85.66;99339.66;5050655;28;20129;-51
2021/01/28 09:13:24;;;;;;;25.98;4.38;;;;;;;9.24;85.23;99346.00;5050517;28;20605;-49
2021/01/28 09:16:18;;;;;;;19.63;4.47;;;;;;;9.27;85.56;99334.97;5046123;28;20048;-51
2021/01/28 09:19:17;;;;;;;28.38;6.05;;;;;;;9.28;85.11;99353.16;5045360;28;20052;-47
2021/01/28 09:22:06;;;;;;;23.52;4.20;;;;;;;9.32;85.38;99350.47;5049403;28;20053;-50
2021/01/28 09:24:52;;;;;;;28.95;5.55;;;;;;;9.33;85.47;99355.59;5048491;28;20243;-55
2021/01/28 09:27:39;;;;;;;18.20;4.28;;;;;;;9.35;85.38;99350.50;5048290;28;20051;-52
2021/01/28 09:30:35;;;;;;;19.30;3.80;;;;;;;9.37;85.41;99356.44;5047261;28;20136;-47
2021/01/28 09:33:39;;;;;;;31.70;4.90;;;;;;;9.39;85.21;99364.38;5050141;28;20045;-53
2021/01/28 09:36:30;;;;;;;24.23;4.10;;;;;;;9.41;85.38;99368.34;5049229;28;20037;-50
2021/01/28 09:39:43;;;;;;;19.90;4.65;;;;;;;9.42;85.23;99381.00;5050553;28;20049;-51
2021/01/28 09:42:33;;;;;;;24.98;6.25;;;;;;;9.44;85.39;99378.66;5043766;28;20041;-51
2021/01/28 09:45:26;;;;;;;23.95;5.45;;;;;;;9.47;85.37;99374.38;5048878;28;20057;-50
2021/01/28 09:48:13;;;;;;;28.85;5.70;;;;;;;9.48;85.33;99379.50;5050457;28;20087;-48
2021/01/28 09:50:40;;;;;;;22.65;4.32;;;;;;;9.49;85.40;99385.84;5056504;28;20053;-51
2021/01/28 09:53:06;;;;;;;27.45;5.18;;;;;;;9.50;85.37;99395.72;5050527;28;20049;-51
2021/01/28 09:55:35;;;;;;;25.48;4.35;;;;;;;9.50;85.16;99388.25;5050024;28;20544;-50
2021/01/28 09:58:01;;;;;;;28.88;5.78;;;;;;;9.52;85.33;99385.09;5049806;28;20052;-50
2021/01/28 10:00:27;;;;;;;25.17;6.32;;;;;;;9.52;85.22;99391.44;5050312;28;20812;-51
2021/01/28 10:02:59;;;;;;;37.85;6.07;;;;;;;9.52;85.20;99402.47;5050184;28;20063;-51
2021/01/28 10:05:30;;;;;;;23.80;5.15;;;;;;;9.54;85.28;99391.84;5049297;28;20433;-52
2021/01/28 10:07:57;;;;;;;27.73;6.07;;;;;;;9.53;85.18;99395.00;5051225;28;20071;-49
2021/01/28 10:10:27;;;;;;;23.88;4.78;;;;;;;9.52;85.15;99393.38;5042648;28;20076;-48
2021/01/28 10:12:58;;;;;;;27.52;7.07;;;;;;;9.51;84.97;99395.34;5044351;28;20036;-50
2021/01/28 10:15:25;;;;;;;24.58;5.20;;;;;;;9.52;85.16;99390.63;5048341;28;20099;-51
2021/01/28 10:17:53;;;;;;;31.45;6.80;;;;;;;9.55;85.24;99406.47;5050731;28;20045;-52
2021/01/28 10:20:20;;;;;;;23.83;5.20;;;;;;;9.57;85.07;99415.16;5049208;28;20059;-51
2021/01/28 10:22:49;;;;;;;27.85;5.57;;;;;;;9.58;85.23;99406.50;5048536;28;20043;-48
2021/01/28 10:25:17;;;;;;;21.42;6.07;;;;;;;9.61;85.04;99416.81;5046757;28;20118;-48
2021/01/28 10:27:43;;;;;;;37.08;7.03;;;;;;;9.64;85.12;99409.75;5049940;28;20037;-50
2021/01/28 10:30:13;;;;;;;25.00;5.72;;;;;;;9.66;85.13;99413.72;5048363;28;20052;-50
2021/01/28 10:32:42;;;;;;;27.98;4.55;;;;;;;9.68;85.26;99416.94;5050397;28;20056;-47
2021/01/28 10:35:11;;;;;;;24.42;4.68;;;;;;;9.70;84.93;99424.84;5048484;28;20506;-50
2021/01/28 10:37:38;;;;;;;34.70;6.75;;;;;;;9.72;84.99;99428.03;5048276;28;20044;-49
2021/01/28 10:40:05;;;;;;;25.75;5.28;;;;;;;9.73;85.31;99435.16;5051048;28;20098;-48
2021/01/28 10:42:40;;;;;;;27.83;5.93;;;;;;;9.74;85.27;99431.25;5049614;28;20071;-49
2021/01/28 10:45:12;;;;;;;24.52;6.22;;;;;;;9.76;85.13;99443.53;5047076;28;20987;-50
2021/01/28 10:47:59;;;;;;;31.15;6.32;;;;;;;9.80;85.18;99443.56;5044648;28;20154;-52
2021/01/28 10:50:50;;;;;;;31.55;8.65;;;;;;;9.82;85.07;99441.25;5063167;28;20107;-48
2021/01/28 10:53:37;;;;;;;24.25;8.57;;;;;;;9.83;84.91;99445.59;5054224;28;20052;-53
2021/01/28 10:56:03;;;;;;;30.63;6.97;;;;;;;9.84;85.06;99447.19;5045647;28;20120;-46
2021/01/28 10:58:30;;;;;;;26.13;4.88;;;;;;;9.83;84.77;99440.06;5048236;28;20080;-47
2021/01/28 11:00:56;;;;;;;26.98;4.28;;;;;;;9.83;84.55;99440.06;5049804;28;20525;-47
2021/01/28 11:03:23;;;;;;;25.25;5.57;;;;;;;9.82;84.40;99433.72;5049569;28;20482;-46
2021/01/28 11:05:51;;;;;;;34.88;4.43;;;;;;;9.82;84.33;99432.97;5049065;28;20048;-48
2021/01/28 11:08:17;;;;;;;18.38;4.63;;;;;;;9.84;84.46;99430.59;5042626;28;20069;-49
2021/01/28 11:10:44;;;;;;;23.00;4.50;;;;;;;9.85;84.14;99432.19;5048659;28;20091;-53
2021/01/28 11:13:10;;;;;;;22.05;4.53;;;;;;;9.87;83.98;99424.34;5048929;28;20048;-55
2021/01/28 11:15:38;;;;;;;27.95;5.43;;;;;;;9.90;83.85;99423.56;5049054;28;20036;-47
2021/01/28 11:18:07;;;;;;;25.33;7.47;;;;;;;9.93;83.79;99417.28;5049925;28;20079;-48
2021/01/28 11:20:34;;;;;;;18.63;4.13;;;;;;;9.99;83.78;99421.34;5048068;28;20037;-53
2021/01/28 11:23:02;;;;;;;26.88;4.68;;;;;;;9.99;83.49;99424.09;5049532;28;20065;-49
2021/01/28 11:25:29;;;;;;;28.33;4.28;;;;;;;10.02;83.48;99428.91;5048934;28;20126;-52
2021/01/28 11:27:56;;;;;;;24.75;4.32;;;;;;;10.04;83.45;99423.78;5049568;28;20041;-53
2021/01/28 11:30:26;;;;;;;23.88;4.28;;;;;;;10.07;83.43;99428.56;5048548;28;20056;-51
2021/01/28 11:32:55;;;;;;;15.25;4.82;;;;;;;10.10;83.45;99422.28;5052969;28;20044;-50
2021/01/28 11:35:24;;;;;;;22.42;6.70;;;;;;;10.13;83.21;99416.06;5053619;28;20099;-47
2021/01/28 11:37:51;;;;;;;35.17;7.90;;;;;;;10.14;83.19;99412.09;5052153;28;20107;-48
2021/01/28 11:40:20;;;;;;;22.00;4.85;;;;;;;10.16;83.21;99406.22;5052725;28;20045;-47
2021/01/28 11:42:47;;;;;;;24.35;6.63;;;;;;;10.16;83.14;99395.94;5053121;28;20478;-52
2021/01/28 11:45:15;;;;;;;14.00;4.47;;;;;;;10.16;82.94;99387.66;5052410;28;20072;-52
2021/01/28 11:47:41;;;;;;;27.08;6.45;;;;;;;10.14;82.63;99389.97;5051890;28;20136;-49
2021/01/28 11:50:10;;;;;;;18.90;4.38;;;;;;;10.14;82.60;99384.44;5053643;28;20025;-49
2021/01/28 11:52:37;;;;;;;18.17;4.75;;;;;;;10.13;82.58;99388.41;5052656;28;20045;-51
2021/01/28 11:55:06;;;;;;;28.70;4.72;;;;;;;10.13;82.62;99393.94;5049898;28;20057;-51
2021/01/28 11:57:32;;;;;;;21.40;4.05;;;;;;;10.12;82.69;99392.31;5053847;28;20052;-50
2021/01/28 11:59:58;;;;;;;15.73;4.13;;;;;;;10.12;82.48;99386.78;5052623;28;20486;-49
2021/01/28 12:02:25;;;;;;;40.90;8.15;;;;;;;10.12;82.38;99383.19;5050667;28;20044;-47
2021/01/28 12:04:54;;;;;;;17.20;4.80;;;;;;;10.10;82.57;99375.28;5053862;28;20049;-50
2021/01/28 12:07:40;;;;;;;35.03;7.72;;;;;;;10.09;82.57;99368.16;5039014;28;20457;-52
2021/01/28 12:10:29;;;;;;;16.30;5.38;;;;;;;10.07;82.40;99367.75;5051722;28;20049;-52
2021/01/28 12:13:14;;;;;;;26.25;5.40;;;;;;;10.07;82.28;99362.22;5052772;28;20052;-50